sensor_id;sensor_type;location;lat;lon;timestamp;P1;durP1;ratioP1;P2;durP2;ratioP2
10074;SDS011;5076;42.680;23.288;2022-07-23T00:01:52;8.80;;;4.43;;
10074;SDS011;5076;42.680;23.288;2022-07-23T00:04:20;6.73;;;4.30;;
10074;SDS011;5076;42.680;23.288;2022-07-23T00:06:47;7.47;;;4.30;;
10074;SDS011;5076;42.680;23.288;2022-07-23T00:09:13;5.73;;;4.20;;
10074;SDS011;5076;42.680;23.288;2022-07-23T00:11:40;6.30;;;4.43;;
10074;SDS011;5076;42.680;23.288;2022-07-23T00:14:06;5.33;;;4.73;;
10074;SDS011;5076;42.680;23.288;2022-07-23T00:16:33;6.77;;;4.37;;
10074;SDS011;5076;42.680;23.288;2022-07-23T00:18:59;8.63;;;4.53;;
10074;SDS011;5076;42.680;23.288;2022-07-23T00:21:29;4.40;;;4.00;;
10074;SDS011;5076;42.680;23.288;2022-07-23T00:23:55;4.30;;;3.90;;
10074;SDS011;5076;42.680;23.288;2022-07-23T00:26:22;8.73;;;4.50;;
10074;SDS011;5076;42.680;23.288;2022-07-23T00:28:49;5.30;;;3.87;;
10074;SDS011;5076;42.680;23.288;2022-07-23T00:31:15;6.93;;;3.80;;
10074;SDS011;5076;42.680;23.288;2022-07-23T00:33:42;5.30;;;3.90;;
10074;SDS011;5076;42.680;23.288;2022-07-23T00:36:09;6.20;;;3.80;;
10074;SDS011;5076;42.680;23.288;2022-07-23T00:38:37;5.20;;;3.80;;
10074;SDS011;5076;42.680;23.288;2022-07-23T00:41:03;6.93;;;3.33;;
10074;SDS011;5076;42.680;23.288;2022-07-23T00:43:30;6.70;;;3.93;;
10074;SDS011;5076;42.680;23.288;2022-07-23T00:45:56;5.13;;;3.60;;
10074;SDS011;5076;42.680;23.288;2022-07-23T00:48:23;6.43;;;4.30;;
10074;SDS011;5076;42.680;23.288;2022-07-23T00:50:50;6.30;;;3.90;;
10074;SDS011;5076;42.680;23.288;2022-07-23T00:53:16;5.20;;;3.60;;
10074;SDS011;5076;42.680;23.288;2022-07-23T00:55:44;5.60;;;3.90;;
10074;SDS011;5076;42.680;23.288;2022-07-23T00:58:11;4.33;;;3.23;;
10074;SDS011;5076;42.680;23.288;2022-07-23T01:00:37;5.10;;;3.40;;
10074;SDS011;5076;42.680;23.288;2022-07-23T01:03:04;7.23;;;3.77;;
10074;SDS011;5076;42.680;23.288;2022-07-23T01:05:31;7.13;;;3.57;;
10074;SDS011;5076;42.680;23.288;2022-07-23T01:07:57;6.77;;;4.00;;
10074;SDS011;5076;42.680;23.288;2022-07-23T01:10:24;5.23;;;3.83;;
10074;SDS011;5076;42.680;23.288;2022-07-23T01:12:59;7.57;;;4.00;;
10074;SDS011;5076;42.680;23.288;2022-07-23T01:15:25;6.33;;;3.90;;
10074;SDS011;5076;42.680;23.288;2022-07-23T01:17:52;5.67;;;3.90;;
10074;SDS011;5076;42.680;23.288;2022-07-23T01:20:19;4.83;;;3.60;;
10074;SDS011;5076;42.680;23.288;2022-07-23T01:22:47;5.20;;;3.93;;
10074;SDS011;5076;42.680;23.288;2022-07-23T01:25:13;8.53;;;3.60;;
10074;SDS011;5076;42.680;23.288;2022-07-23T01:27:40;8.33;;;4.70;;
10074;SDS011;5076;42.680;23.288;2022-07-23T01:30:07;8.30;;;4.67;;
10074;SDS011;5076;42.680;23.288;2022-07-23T01:32:34;7.70;;;4.70;;
10074;SDS011;5076;42.680;23.288;2022-07-23T01:35:00;11.43;;;4.97;;
10074;SDS011;5076;42.680;23.288;2022-07-23T01:37:27;5.77;;;4.50;;
10074;SDS011;5076;42.680;23.288;2022-07-23T01:39:55;5.50;;;3.90;;
10074;SDS011;5076;42.680;23.288;2022-07-23T01:42:21;6.67;;;3.90;;
10074;SDS011;5076;42.680;23.288;2022-07-23T01:44:48;6.43;;;4.03;;
10074;SDS011;5076;42.680;23.288;2022-07-23T01:47:15;4.00;;;3.53;;
10074;SDS011;5076;42.680;23.288;2022-07-23T01:49:42;6.20;;;4.37;;
10074;SDS011;5076;42.680;23.288;2022-07-23T01:52:09;6.37;;;4.07;;
10074;SDS011;5076;42.680;23.288;2022-07-23T01:54:36;5.97;;;3.97;;
10074;SDS011;5076;42.680;23.288;2022-07-23T01:57:05;5.77;;;4.13;;
10074;SDS011;5076;42.680;23.288;2022-07-23T01:59:32;6.73;;;4.00;;
10074;SDS011;5076;42.680;23.288;2022-07-23T02:01:59;6.47;;;3.90;;
10074;SDS011;5076;42.680;23.288;2022-07-23T02:04:26;4.17;;;3.77;;
10074;SDS011;5076;42.680;23.288;2022-07-23T02:06:53;5.07;;;3.73;;
10074;SDS011;5076;42.680;23.288;2022-07-23T02:09:20;6.17;;;3.70;;
10074;SDS011;5076;42.680;23.288;2022-07-23T02:11:47;5.50;;;3.50;;
10074;SDS011;5076;42.680;23.288;2022-07-23T02:14:15;5.83;;;3.87;;
10074;SDS011;5076;42.680;23.288;2022-07-23T02:16:42;8.30;;;3.77;;
10074;SDS011;5076;42.680;23.288;2022-07-23T02:19:08;5.50;;;3.67;;
10074;SDS011;5076;42.680;23.288;2022-07-23T02:21:35;5.07;;;3.87;;
10074;SDS011;5076;42.680;23.288;2022-07-23T02:24:02;4.87;;;4.10;;
10074;SDS011;5076;42.680;23.288;2022-07-23T02:26:28;6.03;;;4.00;;
10074;SDS011;5076;42.680;23.288;2022-07-23T02:28:57;7.83;;;3.80;;
10074;SDS011;5076;42.680;23.288;2022-07-23T02:31:25;7.83;;;4.23;;
10074;SDS011;5076;42.680;23.288;2022-07-23T02:33:51;4.97;;;4.20;;
10074;SDS011;5076;42.680;23.288;2022-07-23T02:36:18;8.67;;;4.27;;
10074;SDS011;5076;42.680;23.288;2022-07-23T02:38:45;7.53;;;4.47;;
10074;SDS011;5076;42.680;23.288;2022-07-23T02:41:12;4.20;;;3.77;;
10074;SDS011;5076;42.680;23.288;2022-07-23T02:43:38;5.17;;;4.17;;
10074;SDS011;5076;42.680;23.288;2022-07-23T02:46:05;7.10;;;3.80;;
10074;SDS011;5076;42.680;23.288;2022-07-23T02:48:33;8.60;;;4.10;;
10074;SDS011;5076;42.680;23.288;2022-07-23T02:50:59;9.60;;;4.33;;
10074;SDS011;5076;42.680;23.288;2022-07-23T02:53:26;6.13;;;4.10;;
10074;SDS011;5076;42.680;23.288;2022-07-23T02:55:53;8.87;;;4.07;;
10074;SDS011;5076;42.680;23.288;2022-07-23T02:58:19;6.77;;;4.17;;
10074;SDS011;5076;42.680;23.288;2022-07-23T03:00:46;6.70;;;3.97;;
10074;SDS011;5076;42.680;23.288;2022-07-23T03:03:13;9.63;;;4.63;;
10074;SDS011;5076;42.680;23.288;2022-07-23T03:05:41;9.77;;;4.20;;
10074;SDS011;5076;42.680;23.288;2022-07-23T03:08:07;7.53;;;4.33;;
10074;SDS011;5076;42.680;23.288;2022-07-23T03:10:34;7.43;;;4.77;;
10074;SDS011;5076;42.680;23.288;2022-07-23T03:13:00;8.43;;;4.77;;
10074;SDS011;5076;42.680;23.288;2022-07-23T03:15:27;9.87;;;5.07;;
10074;SDS011;5076;42.680;23.288;2022-07-23T03:17:54;5.50;;;4.53;;
10074;SDS011;5076;42.680;23.288;2022-07-23T03:20:20;5.47;;;4.50;;
10074;SDS011;5076;42.680;23.288;2022-07-23T03:22:48;6.80;;;4.90;;
10074;SDS011;5076;42.680;23.288;2022-07-23T03:25:15;6.43;;;5.03;;
10074;SDS011;5076;42.680;23.288;2022-07-23T03:27:41;7.27;;;4.87;;
10074;SDS011;5076;42.680;23.288;2022-07-23T03:30:10;6.27;;;4.13;;
10074;SDS011;5076;42.680;23.288;2022-07-23T03:32:37;6.20;;;4.87;;
10074;SDS011;5076;42.680;23.288;2022-07-23T03:35:04;6.10;;;4.70;;
10074;SDS011;5076;42.680;23.288;2022-07-23T03:37:31;5.90;;;4.70;;
10074;SDS011;5076;42.680;23.288;2022-07-23T03:39:59;7.97;;;4.80;;
10074;SDS011;5076;42.680;23.288;2022-07-23T03:42:25;5.17;;;4.50;;
10074;SDS011;5076;42.680;23.288;2022-07-23T03:44:52;7.83;;;4.90;;
10074;SDS011;5076;42.680;23.288;2022-07-23T03:47:18;7.73;;;4.60;;
10074;SDS011;5076;42.680;23.288;2022-07-23T03:49:46;7.97;;;4.60;;
10074;SDS011;5076;42.680;23.288;2022-07-23T03:52:13;7.17;;;4.90;;
10074;SDS011;5076;42.680;23.288;2022-07-23T03:54:40;6.00;;;5.40;;
10074;SDS011;5076;42.680;23.288;2022-07-23T03:57:08;8.73;;;5.10;;
10074;SDS011;5076;42.680;23.288;2022-07-23T03:59:34;9.30;;;5.60;;
10074;SDS011;5076;42.680;23.288;2022-07-23T04:02:01;6.00;;;5.10;;
10074;SDS011;5076;42.680;23.288;2022-07-23T04:04:27;8.03;;;5.03;;
10074;SDS011;5076;42.680;23.288;2022-07-23T04:06:54;9.27;;;5.87;;
10074;SDS011;5076;42.680;23.288;2022-07-23T04:09:21;7.40;;;4.73;;
10074;SDS011;5076;42.680;23.288;2022-07-23T04:11:49;5.70;;;4.70;;
10074;SDS011;5076;42.680;23.288;2022-07-23T04:14:17;6.07;;;4.90;;
10074;SDS011;5076;42.680;23.288;2022-07-23T04:16:43;5.70;;;4.17;;
10074;SDS011;5076;42.680;23.288;2022-07-23T04:19:10;5.27;;;4.60;;
10074;SDS011;5076;42.680;23.288;2022-07-23T04:21:37;7.60;;;4.37;;
10074;SDS011;5076;42.680;23.288;2022-07-23T04:24:04;5.40;;;4.70;;
10074;SDS011;5076;42.680;23.288;2022-07-23T04:26:30;5.60;;;4.50;;
10074;SDS011;5076;42.680;23.288;2022-07-23T04:28:57;6.47;;;4.83;;
10074;SDS011;5076;42.680;23.288;2022-07-23T04:31:25;5.30;;;4.60;;
10074;SDS011;5076;42.680;23.288;2022-07-23T04:33:51;4.73;;;4.20;;
10074;SDS011;5076;42.680;23.288;2022-07-23T04:36:18;6.67;;;4.80;;
10074;SDS011;5076;42.680;23.288;2022-07-23T04:38:44;5.33;;;4.10;;
10074;SDS011;5076;42.680;23.288;2022-07-23T04:41:11;8.87;;;5.10;;
10074;SDS011;5076;42.680;23.288;2022-07-23T04:43:37;6.90;;;5.07;;
10074;SDS011;5076;42.680;23.288;2022-07-23T04:46:04;10.03;;;5.40;;
10074;SDS011;5076;42.680;23.288;2022-07-23T04:48:32;7.07;;;5.27;;
10074;SDS011;5076;42.680;23.288;2022-07-23T04:50:59;8.03;;;4.90;;
10074;SDS011;5076;42.680;23.288;2022-07-23T04:53:27;6.40;;;4.77;;
10074;SDS011;5076;42.680;23.288;2022-07-23T04:55:53;6.40;;;5.10;;
10074;SDS011;5076;42.680;23.288;2022-07-23T04:58:20;8.43;;;5.43;;
10074;SDS011;5076;42.680;23.288;2022-07-23T05:00:47;8.03;;;5.23;;
10074;SDS011;5076;42.680;23.288;2022-07-23T05:03:13;6.40;;;5.17;;
10074;SDS011;5076;42.680;23.288;2022-07-23T05:05:41;5.70;;;4.60;;
10074;SDS011;5076;42.680;23.288;2022-07-23T05:08:08;7.10;;;5.13;;
10074;SDS011;5076;42.680;23.288;2022-07-23T05:10:35;7.37;;;4.90;;
10074;SDS011;5076;42.680;23.288;2022-07-23T05:13:01;11.90;;;5.10;;
10074;SDS011;5076;42.680;23.288;2022-07-23T05:15:28;7.70;;;4.80;;
10074;SDS011;5076;42.680;23.288;2022-07-23T05:17:55;6.43;;;5.10;;
10074;SDS011;5076;42.680;23.288;2022-07-23T05:20:22;6.30;;;4.73;;
10074;SDS011;5076;42.680;23.288;2022-07-23T05:22:50;7.53;;;5.00;;
10074;SDS011;5076;42.680;23.288;2022-07-23T05:25:16;6.47;;;5.00;;
10074;SDS011;5076;42.680;23.288;2022-07-23T05:27:43;8.83;;;5.20;;
10074;SDS011;5076;42.680;23.288;2022-07-23T05:30:10;10.80;;;4.77;;
10074;SDS011;5076;42.680;23.288;2022-07-23T05:32:36;6.67;;;5.00;;
10074;SDS011;5076;42.680;23.288;2022-07-23T05:35:03;7.83;;;5.13;;
10074;SDS011;5076;42.680;23.288;2022-07-23T05:37:30;6.67;;;4.93;;
10074;SDS011;5076;42.680;23.288;2022-07-23T05:40:00;9.63;;;5.37;;
10074;SDS011;5076;42.680;23.288;2022-07-23T05:42:27;7.63;;;5.67;;
10074;SDS011;5076;42.680;23.288;2022-07-23T05:44:54;8.80;;;5.50;;
10074;SDS011;5076;42.680;23.288;2022-07-23T05:47:21;9.30;;;5.37;;
10074;SDS011;5076;42.680;23.288;2022-07-23T05:49:47;7.73;;;5.20;;
10074;SDS011;5076;42.680;23.288;2022-07-23T05:52:14;5.87;;;5.17;;
10074;SDS011;5076;42.680;23.288;2022-07-23T05:54:41;6.60;;;5.50;;
10074;SDS011;5076;42.680;23.288;2022-07-23T05:57:09;6.20;;;5.03;;
10074;SDS011;5076;42.680;23.288;2022-07-23T05:59:35;17.03;;;7.53;;
10074;SDS011;5076;42.680;23.288;2022-07-23T06:02:02;6.53;;;5.07;;
10074;SDS011;5076;42.680;23.288;2022-07-23T06:04:29;7.90;;;5.70;;
10074;SDS011;5076;42.680;23.288;2022-07-23T06:06:55;6.83;;;5.27;;
10074;SDS011;5076;42.680;23.288;2022-07-23T06:09:22;6.77;;;5.00;;
10074;SDS011;5076;42.680;23.288;2022-07-23T06:11:48;6.17;;;5.07;;
10074;SDS011;5076;42.680;23.288;2022-07-23T06:14:16;6.57;;;5.60;;
10074;SDS011;5076;42.680;23.288;2022-07-23T06:16:43;8.03;;;5.50;;
10074;SDS011;5076;42.680;23.288;2022-07-23T06:19:09;7.47;;;5.67;;
10074;SDS011;5076;42.680;23.288;2022-07-23T06:21:36;7.50;;;4.83;;
10074;SDS011;5076;42.680;23.288;2022-07-23T06:24:03;7.23;;;5.47;;
10074;SDS011;5076;42.680;23.288;2022-07-23T06:26:29;5.60;;;4.60;;
10074;SDS011;5076;42.680;23.288;2022-07-23T06:28:56;8.13;;;5.57;;
10074;SDS011;5076;42.680;23.288;2022-07-23T06:31:24;9.47;;;5.23;;
10074;SDS011;5076;42.680;23.288;2022-07-23T06:33:50;7.47;;;5.17;;
10074;SDS011;5076;42.680;23.288;2022-07-23T06:36:17;7.87;;;5.80;;
10074;SDS011;5076;42.680;23.288;2022-07-23T06:38:43;6.17;;;4.93;;
10074;SDS011;5076;42.680;23.288;2022-07-23T06:41:10;8.10;;;5.10;;
10074;SDS011;5076;42.680;23.288;2022-07-23T06:43:37;10.83;;;5.67;;
10074;SDS011;5076;42.680;23.288;2022-07-23T06:46:03;9.93;;;5.60;;
10074;SDS011;5076;42.680;23.288;2022-07-23T06:48:31;6.17;;;5.13;;
10074;SDS011;5076;42.680;23.288;2022-07-23T06:50:59;11.73;;;5.63;;
10074;SDS011;5076;42.680;23.288;2022-07-23T06:53:26;10.27;;;5.20;;
10074;SDS011;5076;42.680;23.288;2022-07-23T06:55:53;8.47;;;5.63;;
10074;SDS011;5076;42.680;23.288;2022-07-23T06:58:19;7.50;;;5.83;;
10074;SDS011;5076;42.680;23.288;2022-07-23T07:00:46;7.70;;;5.70;;
10074;SDS011;5076;42.680;23.288;2022-07-23T07:03:13;8.43;;;5.47;;
10074;SDS011;5076;42.680;23.288;2022-07-23T07:05:41;9.20;;;5.80;;
10074;SDS011;5076;42.680;23.288;2022-07-23T07:08:07;8.97;;;5.87;;
10074;SDS011;5076;42.680;23.288;2022-07-23T07:10:34;8.70;;;5.90;;
10074;SDS011;5076;42.680;23.288;2022-07-23T07:13:01;6.43;;;5.73;;
10074;SDS011;5076;42.680;23.288;2022-07-23T07:15:30;10.87;;;6.00;;
10074;SDS011;5076;42.680;23.288;2022-07-23T07:17:57;7.37;;;5.30;;
10074;SDS011;5076;42.680;23.288;2022-07-23T07:20:23;6.40;;;5.43;;
10074;SDS011;5076;42.680;23.288;2022-07-23T07:22:51;11.87;;;5.93;;
10074;SDS011;5076;42.680;23.288;2022-07-23T07:25:18;7.83;;;4.97;;
10074;SDS011;5076;42.680;23.288;2022-07-23T07:27:45;5.73;;;4.97;;
10074;SDS011;5076;42.680;23.288;2022-07-23T07:30:11;8.27;;;4.90;;
10074;SDS011;5076;42.680;23.288;2022-07-23T07:32:38;5.90;;;5.13;;
10074;SDS011;5076;42.680;23.288;2022-07-23T07:35:05;6.87;;;5.43;;
10074;SDS011;5076;42.680;23.288;2022-07-23T07:37:31;9.17;;;4.93;;
10074;SDS011;5076;42.680;23.288;2022-07-23T07:39:59;7.23;;;4.93;;
10074;SDS011;5076;42.680;23.288;2022-07-23T07:42:26;8.25;;;4.72;;
10074;SDS011;5076;42.680;23.288;2022-07-23T07:44:53;8.40;;;5.00;;
10074;SDS011;5076;42.680;23.288;2022-07-23T07:47:19;8.57;;;5.10;;
10074;SDS011;5076;42.680;23.288;2022-07-23T07:49:46;7.88;;;4.95;;
10074;SDS011;5076;42.680;23.288;2022-07-23T07:52:12;7.32;;;5.38;;
10074;SDS011;5076;42.680;23.288;2022-07-23T07:54:39;7.78;;;5.18;;
10074;SDS011;5076;42.680;23.288;2022-07-23T07:57:07;6.50;;;5.28;;
10074;SDS011;5076;42.680;23.288;2022-07-23T07:59:33;6.30;;;5.10;;
10074;SDS011;5076;42.680;23.288;2022-07-23T08:02:00;11.13;;;5.60;;
10074;SDS011;5076;42.680;23.288;2022-07-23T08:04:27;10.68;;;5.00;;
10074;SDS011;5076;42.680;23.288;2022-07-23T08:06:53;5.65;;;5.05;;
10074;SDS011;5076;42.680;23.288;2022-07-23T08:09:20;6.82;;;4.97;;
10074;SDS011;5076;42.680;23.288;2022-07-23T08:11:47;7.47;;;4.78;;
10074;SDS011;5076;42.680;23.288;2022-07-23T08:14:15;9.45;;;5.07;;
10074;SDS011;5076;42.680;23.288;2022-07-23T08:16:41;6.95;;;5.20;;
10074;SDS011;5076;42.680;23.288;2022-07-23T08:19:08;8.80;;;4.90;;
10074;SDS011;5076;42.680;23.288;2022-07-23T08:21:34;8.32;;;5.10;;
10074;SDS011;5076;42.680;23.288;2022-07-23T08:24:01;5.30;;;4.72;;
10074;SDS011;5076;42.680;23.288;2022-07-23T08:26:27;11.32;;;5.70;;
10074;SDS011;5076;42.680;23.288;2022-07-23T08:28:54;6.97;;;4.95;;
10074;SDS011;5076;42.680;23.288;2022-07-23T08:31:22;8.35;;;5.07;;
10074;SDS011;5076;42.680;23.288;2022-07-23T08:33:48;7.15;;;5.30;;
10074;SDS011;5076;42.680;23.288;2022-07-23T08:36:15;10.77;;;5.03;;
10074;SDS011;5076;42.680;23.288;2022-07-23T08:38:41;8.27;;;4.88;;
10074;SDS011;5076;42.680;23.288;2022-07-23T08:41:08;9.27;;;5.65;;
10074;SDS011;5076;42.680;23.288;2022-07-23T08:43:35;6.85;;;4.72;;
10074;SDS011;5076;42.680;23.288;2022-07-23T08:46:02;7.55;;;4.40;;
10074;SDS011;5076;42.680;23.288;2022-07-23T08:48:31;7.85;;;5.00;;
10074;SDS011;5076;42.680;23.288;2022-07-23T08:50:58;7.53;;;5.35;;
10074;SDS011;5076;42.680;23.288;2022-07-23T08:53:25;15.38;;;5.78;;
10074;SDS011;5076;42.680;23.288;2022-07-23T08:55:53;6.60;;;4.60;;
10074;SDS011;5076;42.680;23.288;2022-07-23T08:58:20;9.90;;;5.80;;
10074;SDS011;5076;42.680;23.288;2022-07-23T09:00:47;11.18;;;5.72;;
10074;SDS011;5076;42.680;23.288;2022-07-23T09:03:15;8.88;;;5.18;;
10074;SDS011;5076;42.680;23.288;2022-07-23T09:05:43;6.45;;;4.88;;
10074;SDS011;5076;42.680;23.288;2022-07-23T09:08:11;7.35;;;5.00;;
10074;SDS011;5076;42.680;23.288;2022-07-23T09:10:51;12.15;;;5.75;;
10074;SDS011;5076;42.680;23.288;2022-07-23T09:13:24;6.55;;;4.63;;
10074;SDS011;5076;42.680;23.288;2022-07-23T09:15:52;6.20;;;4.85;;
10074;SDS011;5076;42.680;23.288;2022-07-23T09:18:18;6.32;;;4.70;;
10074;SDS011;5076;42.680;23.288;2022-07-23T09:20:46;5.40;;;4.78;;
10074;SDS011;5076;42.680;23.288;2022-07-23T09:23:13;11.48;;;5.05;;
10074;SDS011;5076;42.680;23.288;2022-07-23T09:25:39;7.35;;;5.30;;
10074;SDS011;5076;42.680;23.288;2022-07-23T09:28:06;8.13;;;4.97;;
10074;SDS011;5076;42.680;23.288;2022-07-23T09:30:33;6.40;;;4.47;;
10074;SDS011;5076;42.680;23.288;2022-07-23T09:33:04;7.13;;;5.03;;
10074;SDS011;5076;42.680;23.288;2022-07-23T09:35:43;6.32;;;4.15;;
10074;SDS011;5076;42.680;23.288;2022-07-23T09:38:11;10.77;;;5.20;;
10074;SDS011;5076;42.680;23.288;2022-07-23T09:40:37;7.35;;;4.50;;
10074;SDS011;5076;42.680;23.288;2022-07-23T09:43:04;8.07;;;3.90;;
10074;SDS011;5076;42.680;23.288;2022-07-23T09:45:31;8.50;;;4.50;;
10074;SDS011;5076;42.680;23.288;2022-07-23T09:48:09;5.60;;;4.72;;
10074;SDS011;5076;42.680;23.288;2022-07-23T09:50:36;6.20;;;4.20;;
10074;SDS011;5076;42.680;23.288;2022-07-23T09:53:03;5.50;;;4.38;;
10074;SDS011;5076;42.680;23.288;2022-07-23T09:55:32;9.30;;;4.40;;
10074;SDS011;5076;42.680;23.288;2022-07-23T09:58:01;7.68;;;4.72;;
10074;SDS011;5076;42.680;23.288;2022-07-23T10:00:28;7.30;;;4.18;;
10074;SDS011;5076;42.680;23.288;2022-07-23T10:02:55;4.63;;;3.95;;
10074;SDS011;5076;42.680;23.288;2022-07-23T10:05:22;9.45;;;4.60;;
10074;SDS011;5076;42.680;23.288;2022-07-23T10:07:50;5.90;;;4.28;;
10074;SDS011;5076;42.680;23.288;2022-07-23T10:10:17;8.68;;;4.43;;
10074;SDS011;5076;42.680;23.288;2022-07-23T10:12:45;6.53;;;4.40;;
10074;SDS011;5076;42.680;23.288;2022-07-23T10:15:41;7.50;;;4.15;;
10074;SDS011;5076;42.680;23.288;2022-07-23T10:18:09;7.78;;;4.63;;
10074;SDS011;5076;42.680;23.288;2022-07-23T10:20:36;7.30;;;4.50;;
10074;SDS011;5076;42.680;23.288;2022-07-23T10:23:05;5.55;;;4.05;;
10074;SDS011;5076;42.680;23.288;2022-07-23T10:25:36;5.45;;;4.18;;
10074;SDS011;5076;42.680;23.288;2022-07-23T10:28:11;5.57;;;4.40;;
10074;SDS011;5076;42.680;23.288;2022-07-23T10:30:39;8.02;;;4.53;;
10074;SDS011;5076;42.680;23.288;2022-07-23T10:33:23;7.53;;;3.88;;
10074;SDS011;5076;42.680;23.288;2022-07-23T10:35:53;6.72;;;4.25;;
10074;SDS011;5076;42.680;23.288;2022-07-23T10:38:24;8.48;;;4.30;;
10074;SDS011;5076;42.680;23.288;2022-07-23T10:40:55;5.35;;;4.32;;
10074;SDS011;5076;42.680;23.288;2022-07-23T10:43:23;9.85;;;4.47;;
10074;SDS011;5076;42.680;23.288;2022-07-23T10:45:50;8.32;;;4.88;;
10074;SDS011;5076;42.680;23.288;2022-07-23T10:48:17;4.65;;;3.83;;
10074;SDS011;5076;42.680;23.288;2022-07-23T10:51:06;6.25;;;3.63;;
10074;SDS011;5076;42.680;23.288;2022-07-23T10:56:14;7.78;;;4.00;;
10074;SDS011;5076;42.680;23.288;2022-07-23T10:58:49;8.32;;;4.35;;
10074;SDS011;5076;42.680;23.288;2022-07-23T11:03:57;9.60;;;3.85;;
10074;SDS011;5076;42.680;23.288;2022-07-23T11:06:24;7.63;;;4.03;;
10074;SDS011;5076;42.680;23.288;2022-07-23T11:08:51;7.47;;;4.13;;
10074;SDS011;5076;42.680;23.288;2022-07-23T11:11:39;7.13;;;3.63;;
10074;SDS011;5076;42.680;23.288;2022-07-23T11:14:07;6.68;;;3.60;;
10074;SDS011;5076;42.680;23.288;2022-07-23T11:16:41;6.40;;;3.30;;
10074;SDS011;5076;42.680;23.288;2022-07-23T11:19:12;11.02;;;4.18;;
10074;SDS011;5076;42.680;23.288;2022-07-23T11:21:46;9.65;;;4.07;;
10074;SDS011;5076;42.680;23.288;2022-07-23T11:24:13;9.23;;;4.38;;
10074;SDS011;5076;42.680;23.288;2022-07-23T11:26:41;9.43;;;3.95;;
10074;SDS011;5076;42.680;23.288;2022-07-23T11:31:52;8.35;;;3.53;;
10074;SDS011;5076;42.680;23.288;2022-07-23T11:34:28;11.00;;;3.80;;
10074;SDS011;5076;42.680;23.288;2022-07-23T11:36:54;7.38;;;3.50;;
10074;SDS011;5076;42.680;23.288;2022-07-23T11:39:21;10.05;;;3.40;;
10074;SDS011;5076;42.680;23.288;2022-07-23T11:41:50;9.45;;;4.32;;
10074;SDS011;5076;42.680;23.288;2022-07-23T11:44:24;9.82;;;3.67;;
10074;SDS011;5076;42.680;23.288;2022-07-23T11:46:56;7.82;;;3.25;;
10074;SDS011;5076;42.680;23.288;2022-07-23T11:49:23;10.80;;;3.25;;
10074;SDS011;5076;42.680;23.288;2022-07-23T11:52:01;11.52;;;3.65;;
10074;SDS011;5076;42.680;23.288;2022-07-23T11:54:29;9.43;;;3.28;;
10074;SDS011;5076;42.680;23.288;2022-07-23T11:56:56;11.55;;;3.83;;
10074;SDS011;5076;42.680;23.288;2022-07-23T11:59:22;9.50;;;3.20;;
10074;SDS011;5076;42.680;23.288;2022-07-23T12:01:58;8.90;;;3.78;;
10074;SDS011;5076;42.680;23.288;2022-07-23T12:04:29;5.38;;;3.13;;
10074;SDS011;5076;42.680;23.288;2022-07-23T12:07:03;12.23;;;4.05;;
10074;SDS011;5076;42.680;23.288;2022-07-23T12:09:29;8.60;;;3.28;;
10074;SDS011;5076;42.680;23.288;2022-07-23T12:11:56;7.43;;;3.90;;
10074;SDS011;5076;42.680;23.288;2022-07-23T12:14:23;9.07;;;3.13;;
10074;SDS011;5076;42.680;23.288;2022-07-23T12:19:32;7.13;;;3.75;;
10074;SDS011;5076;42.680;23.288;2022-07-23T12:21:59;8.63;;;3.45;;
10074;SDS011;5076;42.680;23.288;2022-07-23T12:24:26;6.95;;;2.85;;
10074;SDS011;5076;42.680;23.288;2022-07-23T12:27:08;11.02;;;3.60;;
10074;SDS011;5076;42.680;23.288;2022-07-23T12:29:34;8.35;;;3.90;;
10074;SDS011;5076;42.680;23.288;2022-07-23T12:32:01;7.13;;;3.60;;
10074;SDS011;5076;42.680;23.288;2022-07-23T12:34:28;8.45;;;3.55;;
10074;SDS011;5076;42.680;23.288;2022-07-23T12:36:56;13.85;;;3.47;;
10074;SDS011;5076;42.680;23.288;2022-07-23T12:39:29;12.75;;;4.22;;
10074;SDS011;5076;42.680;23.288;2022-07-23T12:41:56;9.70;;;3.88;;
10074;SDS011;5076;42.680;23.288;2022-07-23T12:44:22;9.35;;;4.00;;
10074;SDS011;5076;42.680;23.288;2022-07-23T12:46:49;8.07;;;4.00;;
10074;SDS011;5076;42.680;23.288;2022-07-23T12:49:24;8.80;;;3.63;;
10074;SDS011;5076;42.680;23.288;2022-07-23T12:51:51;9.00;;;3.90;;
10074;SDS011;5076;42.680;23.288;2022-07-23T12:54:19;7.13;;;3.58;;
10074;SDS011;5076;42.680;23.288;2022-07-23T12:56:52;9.25;;;3.47;;
10074;SDS011;5076;42.680;23.288;2022-07-23T12:59:19;5.05;;;2.78;;
10074;SDS011;5076;42.680;23.288;2022-07-23T13:01:53;7.70;;;3.65;;
10074;SDS011;5076;42.680;23.288;2022-07-23T13:04:20;6.72;;;3.20;;
10074;SDS011;5076;42.680;23.288;2022-07-23T13:06:48;8.68;;;3.63;;
10074;SDS011;5076;42.680;23.288;2022-07-23T13:09:15;15.43;;;4.35;;
10074;SDS011;5076;42.680;23.288;2022-07-23T13:11:44;11.35;;;3.70;;
10074;SDS011;5076;42.680;23.288;2022-07-23T13:14:11;9.60;;;3.42;;
10074;SDS011;5076;42.680;23.288;2022-07-23T13:16:38;5.40;;;3.13;;
10074;SDS011;5076;42.680;23.288;2022-07-23T13:19:05;6.95;;;3.38;;
10074;SDS011;5076;42.680;23.288;2022-07-23T13:21:31;8.18;;;3.70;;
10074;SDS011;5076;42.680;23.288;2022-07-23T13:23:58;9.75;;;3.80;;
10074;SDS011;5076;42.680;23.288;2022-07-23T13:26:25;8.15;;;3.92;;
10074;SDS011;5076;42.680;23.288;2022-07-23T13:28:53;13.00;;;3.95;;
10074;SDS011;5076;42.680;23.288;2022-07-23T13:31:20;8.63;;;3.65;;
10074;SDS011;5076;42.680;23.288;2022-07-23T13:33:46;4.35;;;2.67;;
10074;SDS011;5076;42.680;23.288;2022-07-23T13:36:13;4.15;;;2.83;;
10074;SDS011;5076;42.680;23.288;2022-07-23T13:38:40;7.28;;;3.25;;
10074;SDS011;5076;42.680;23.288;2022-07-23T13:41:06;5.55;;;3.13;;
10074;SDS011;5076;42.680;23.288;2022-07-23T13:43:33;7.18;;;3.33;;
10074;SDS011;5076;42.680;23.288;2022-07-23T13:46:01;8.38;;;3.60;;
10074;SDS011;5076;42.680;23.288;2022-07-23T13:48:27;6.40;;;3.40;;
10074;SDS011;5076;42.680;23.288;2022-07-23T13:50:54;7.72;;;3.20;;
10074;SDS011;5076;42.680;23.288;2022-07-23T13:53:22;12.07;;;3.50;;
10074;SDS011;5076;42.680;23.288;2022-07-23T13:55:49;6.05;;;3.30;;
10074;SDS011;5076;42.680;23.288;2022-07-23T13:58:16;7.45;;;3.05;;
10074;SDS011;5076;42.680;23.288;2022-07-23T14:00:44;8.20;;;3.30;;
10074;SDS011;5076;42.680;23.288;2022-07-23T14:03:12;5.28;;;3.40;;
10074;SDS011;5076;42.680;23.288;2022-07-23T14:05:39;6.07;;;3.42;;
10074;SDS011;5076;42.680;23.288;2022-07-23T14:08:06;9.48;;;3.78;;
10074;SDS011;5076;42.680;23.288;2022-07-23T14:10:33;8.18;;;3.67;;
10074;SDS011;5076;42.680;23.288;2022-07-23T14:12:59;8.30;;;3.45;;
10074;SDS011;5076;42.680;23.288;2022-07-23T14:15:28;7.38;;;3.55;;
10074;SDS011;5076;42.680;23.288;2022-07-23T14:17:54;7.65;;;3.58;;
10074;SDS011;5076;42.680;23.288;2022-07-23T14:20:23;6.55;;;3.50;;
10074;SDS011;5076;42.680;23.288;2022-07-23T14:22:50;5.53;;;3.00;;
10074;SDS011;5076;42.680;23.288;2022-07-23T14:25:17;6.07;;;3.35;;
10074;SDS011;5076;42.680;23.288;2022-07-23T14:27:43;6.43;;;3.28;;
10074;SDS011;5076;42.680;23.288;2022-07-23T14:30:11;9.90;;;4.07;;
10074;SDS011;5076;42.680;23.288;2022-07-23T14:32:38;17.85;;;4.97;;
10074;SDS011;5076;42.680;23.288;2022-07-23T14:35:05;14.43;;;4.80;;
10074;SDS011;5076;42.680;23.288;2022-07-23T14:37:33;5.50;;;3.17;;
10074;SDS011;5076;42.680;23.288;2022-07-23T14:40:00;10.35;;;3.58;;
10074;SDS011;5076;42.680;23.288;2022-07-23T14:42:27;8.25;;;4.00;;
10074;SDS011;5076;42.680;23.288;2022-07-23T14:44:54;8.02;;;3.63;;
10074;SDS011;5076;42.680;23.288;2022-07-23T14:47:20;8.55;;;3.60;;
10074;SDS011;5076;42.680;23.288;2022-07-23T14:49:47;6.80;;;3.33;;
10074;SDS011;5076;42.680;23.288;2022-07-23T14:52:14;5.68;;;3.53;;
10074;SDS011;5076;42.680;23.288;2022-07-23T14:54:42;10.35;;;3.80;;
10074;SDS011;5076;42.680;23.288;2022-07-23T14:57:09;9.00;;;3.78;;
10074;SDS011;5076;42.680;23.288;2022-07-23T14:59:35;8.05;;;4.18;;